Flight Track Log - Related Links

Times and Time Zones

All times are in EDT time to prevent confusion due to time zone crossing. See the N465TP flight status page for this flight to view local times or setup timezone preferences in your user account.

Time Position Orientation Groundspeed Altitude Reporting Facility
EDT Latitude Longitude Course Direction KTS MPH feet Rate Location/Type
Sun 11:19:06 AM 44.3525 -109.1736 201° Southwest 126 145 12,100  Level Salt Lake Center
Sun 11:20:07 AM 44.3125 -109.1953 201° Southwest 152 175 13,200 1,024 Climbing Salt Lake Center
Sun 11:21:09 AM 44.2758 -109.2278 212° Southwest 155 178 14,200 919 Climbing Salt Lake Center
Sun 11:22:11 AM 44.2350 -109.2592 209° Southwest 162 186 15,100 927 Climbing Salt Lake Center
Sun 11:23:12 AM 44.1919 -109.2911 208° Southwest 172 198 16,100 976 Climbing Salt Lake Center
Sun 11:24:14 AM 44.1478 -109.3231 207° Southwest 175 201 17,100 1,113 Climbing Salt Lake Center
Sun 11:25:16 AM 44.0947 -109.3656 210° Southwest 181 208 18,400 1,220 Climbing Salt Lake Center
Sun 11:26:17 AM 44.0483 -109.3983 207° Southwest 185 213 19,600 1,073 Climbing Salt Lake Center
Sun 11:27:19 AM 44.0022 -109.4325 208° Southwest 188 216 20,600 968 Climbing Salt Lake Center
Sun 11:28:21 AM 43.9575 -109.4675 209° Southwest 186 214 21,600 976 Climbing Salt Lake Center
Sun 11:29:22 AM 43.9100 -109.5033 209° Southwest 185 213 22,600 927 Climbing Salt Lake Center
Sun 11:30:24 AM 43.8647 -109.5356 207° Southwest 189 217 23,500 919 Climbing Salt Lake Center
Sun 11:31:26 AM 43.8119 -109.5747 208° Southwest 192 221 24,500 919 Climbing Salt Lake Center
Sun 11:32:28 AM 43.7686 -109.6083 209° Southwest 188 216 25,400 1,024 Climbing Salt Lake Center
Sun 11:33:29 AM 43.7144 -109.6503 209° Southwest 198 228 26,600 927 Climbing Salt Lake Center
Sun 11:34:31 AM 43.6683 -109.6831 207° Southwest 194 223 27,300 677 Climbing Salt Lake Center
Sun 11:35:33 AM 43.6131 -109.7258 209° Southwest 204 235 28,000 339 Climbing Salt Lake Center
Sun 11:36:35 AM 43.5597 -109.7650 208° Southwest 223 257 28,000  Level Salt Lake Center
Sun 11:37:36 AM 43.5039 -109.8058 208° Southwest 237 273 28,000  Level Salt Lake Center
Sun 11:38:38 AM 43.4408 -109.8531 209° Southwest 242 278 28,000  Level Salt Lake Center
Sun 11:39:40 AM 43.3747 -109.8986 207° Southwest 240 276 28,000  Level Salt Lake Center
Sun 11:40:41 AM 43.3175 -109.9417 209° Southwest 243 280 28,000 -49 Level Salt Lake Center
Sun 11:41:43 AM 43.2503 -109.9903 208° Southwest 244 281 27,900  Descending Salt Lake Center
Sun 11:42:45 AM 43.1978 -110.0306 209° Southwest 245 282 28,000 49 Climbing Salt Lake Center
Sun 11:43:46 AM 43.1306 -110.0794 208° Southwest 245 282 28,000  Level Salt Lake Center
Sun 11:44:48 AM 43.0719 -110.1228 208° Southwest 247 284 28,000  Level Salt Lake Center
Sun 11:45:50 AM 43.0058 -110.1703 208° Southwest 242 278 28,000  Level Salt Lake Center
Sun 11:46:52 AM 42.9481 -110.2103 207° Southwest 241 277 28,000  Level Salt Lake Center
Sun 11:47:53 AM 42.8789 -110.2614 208° Southwest 249 287 28,000  Level Salt Lake Center
Sun 11:48:55 AM 42.8200 -110.3039 208° Southwest 250 288 28,000 -48 Level Salt Lake Center
Sun 11:49:57 AM 42.7619 -110.3461 208° Southwest 249 287 27,900  Descending Salt Lake Center
Sun 11:50:58 AM 42.6892 -110.3969 207° Southwest 248 285 28,000 49 Climbing Salt Lake Center
Sun 11:52:00 AM 42.6308 -110.4386 208° Southwest 248 285 28,000  Level Salt Lake Center
Sun 11:53:02 AM 42.5728 -110.4806 208° Southwest 248 285 28,000  Level Salt Lake Center
Sun 11:54:03 AM 42.5056 -110.5281 208° Southwest 244 281 28,000  Level Salt Lake Center
Sun 11:55:05 AM 42.4489 -110.5686 208° Southwest 241 277 28,000  Level Salt Lake Center
Sun 11:56:07 AM 42.3825 -110.6153 207° Southwest 242 278 28,000  Level Salt Lake Center
Sun 11:57:09 AM 42.3261 -110.6564 208° Southwest 242 278 28,000  Level Salt Lake Center
Sun 11:58:10 AM 42.2597 -110.7028 207° Southwest 240 276 28,000  Level Salt Lake Center
Sun 11:59:12 AM 42.2019 -110.7417 207° Southwest 242 278 28,000  Level Salt Lake Center
Sun 12:00:14 PM 42.1442 -110.7822 207° Southwest 242 278 28,000  Level Salt Lake Center
Sun 12:01:15 PM 42.0772 -110.8300 208° Southwest 243 280 28,000  Level Salt Lake Center
Sun 12:02:17 PM 42.0197 -110.8689 207° Southwest 242 278 28,000  Level Salt Lake Center
Sun 12:03:19 PM 41.9528 -110.9164 208° Southwest 244 281 28,000  Level Salt Lake Center
Sun 12:04:21 PM 41.9006 -110.9522 207° Southwest 240 276 28,000  Level Salt Lake Center
Sun 12:05:22 PM 41.8311 -111.0011 208° Southwest 237 273 28,000  Level Salt Lake Center
Sun 12:06:24 PM 41.7731 -111.0417 208° Southwest 237 273 28,000  Level Salt Lake Center
Sun 12:07:26 PM 41.7150 -111.0814 207° Southwest 234 269 28,000  Level Salt Lake Center
Sun 12:08:27 PM 41.6561 -111.1203 206° Southwest 237 273 28,000  Level Salt Lake Center
Sun 12:09:29 PM 41.5969 -111.1619 208° Southwest 239 275 28,000  Level Salt Lake Center
Sun 12:10:31 PM 41.5378 -111.2028 207° Southwest 239 275 28,000  Level Salt Lake Center
Sun 12:11:33 PM 41.4794 -111.2439 208° Southwest 239 275 28,000  Level Salt Lake Center
Sun 12:12:34 PM 41.4083 -111.2917 207° Southwest 238 274 28,000  Level Salt Lake Center
Sun 12:13:36 PM 41.3500 -111.3319 207° Southwest 237 273 28,000  Level Salt Lake Center
Sun 12:14:38 PM 41.2917 -111.3719 207° Southwest 236 272 28,000  Level Salt Lake Center
Sun 12:15:40 PM 41.2336 -111.4114 207° Southwest 236 272 28,000  Level Salt Lake Center
Sun 12:16:41 PM 41.1764 -111.4500 207° Southwest 231 266 28,000  Level Salt Lake Center
Sun 12:17:43 PM 41.1200 -111.4892 208° Southwest 228 262 28,000  Level Salt Lake Center
Sun 12:18:45 PM 41.0639 -111.5267 207° Southwest 226 260 28,000  Level Salt Lake Center
Sun 12:19:47 PM 41.0072 -111.5653 207° Southwest 226 260 28,000  Level Salt Lake Center
Sun 12:20:49 PM 40.9383 -111.6119 207° Southwest 229 264 28,000  Level Salt Lake Center
Sun 12:21:50 PM 40.8806 -111.6497 206° Southwest 231 266 28,000  Level Salt Lake Center
Sun 12:22:52 PM 40.8219 -111.6886 207° Southwest 235 270 28,000  Level Salt Lake Center
Sun 12:23:54 PM 40.7639 -111.7278 207° Southwest 234 269 28,000  Level Salt Lake Center
Sun 12:24:56 PM 40.7069 -111.7658 207° Southwest 227 261 28,000  Level Salt Lake Center
Sun 12:25:58 PM 40.6508 -111.8025 206° Southwest 225 259 28,000  Level Salt Lake Center
Sun 12:26:59 PM 40.5975 -111.8394 208° Southwest 217 250 28,000  Level Salt Lake Center
Sun 12:28:01 PM 40.5431 -111.8750 206° Southwest 219 252 28,000  Level Salt Lake Center
Sun 12:29:03 PM 40.4775 -111.9189 207° Southwest 219 252 28,000  Level Salt Lake Center
Sun 12:30:05 PM 40.4231 -111.9542 206° Southwest 217 250 28,000  Level Salt Lake Center
Sun 12:31:07 PM 40.3703 -111.9897 207° Southwest 215 247 28,000  Level Salt Lake Center
Sun 12:32:08 PM 40.3169 -112.0250 207° Southwest 213 245 28,000  Level Salt Lake Center
Sun 12:33:10 PM 40.2647 -112.0589 206° Southwest 210 242 28,000  Level Salt Lake Center
Sun 12:34:12 PM 40.2106 -112.0950 207° Southwest 219 252 28,000  Level Salt Lake Center
Sun 12:35:14 PM 40.1556 -112.1303 206° Southwest 221 254 28,000  Level Salt Lake Center
Sun 12:36:15 PM 40.0894 -112.1736 207° Southwest 221 254 28,000  Level Salt Lake Center
Sun 12:37:17 PM 40.0344 -112.2103 207° Southwest 221 254 28,000  Level Salt Lake Center
Sun 12:38:19 PM 39.9786 -112.2469 207° Southwest 228 262 28,000  Level Salt Lake Center
Sun 12:39:21 PM 39.9233 -112.2819 206° Southwest 219 252 28,000  Level Salt Lake Center
Sun 12:40:22 PM 39.8678 -112.3183 207° Southwest 222 255 28,000  Level Salt Lake Center
Sun 12:41:24 PM 39.8128 -112.3550 207° Southwest 222 255 28,000  Level Salt Lake Center
Sun 12:42:26 PM 39.7564 -112.3911 206° Southwest 226 260 28,000  Level Salt Lake Center
Sun 12:43:28 PM 39.6889 -112.4350 207° Southwest 226 260 28,000  Level Salt Lake Center
Sun 12:44:29 PM 39.6328 -112.4703 206° Southwest 224 258 28,000  Level Salt Lake Center
Sun 12:45:31 PM 39.5778 -112.5069 207° Southwest 224 258 28,000  Level Salt Lake Center
Sun 12:46:33 PM 39.5211 -112.5439 207° Southwest 227 261 28,000  Level Salt Lake Center
Sun 12:47:34 PM 39.4650 -112.5786 206° Southwest 225 259 28,000  Level Salt Lake Center
Sun 12:48:36 PM 39.4094 -112.6114 205° Southwest 221 254 28,000  Level Salt Lake Center
Sun 12:49:38 PM 39.3525 -112.6469 206° Southwest 225 259 28,000  Level Salt Lake Center
Sun 12:50:39 PM 39.2886 -112.6886 207° Southwest 226 260 28,000  Level Salt Lake Center
Sun 12:51:41 PM 39.2311 -112.7222 204° Southwest 226 260 28,000  Level Salt Lake Center
Sun 12:52:43 PM 39.1744 -112.7622 209° Southwest 230 265 28,000  Level Salt Lake Center
Sun 12:53:44 PM 39.1172 -112.7994 207° Southwest 231 266 28,000  Level Salt Lake Center
Sun 12:54:46 PM 39.0611 -112.8361 207° Southwest 229 264 28,000  Level Salt Lake Center
Sun 12:55:47 PM 38.9919 -112.8783 205° Southwest 229 264 28,000  Level Salt Lake Center
Sun 12:56:49 PM 38.9350 -112.9114 204° Southwest 227 261 28,000  Level Salt Lake Center
Sun 12:57:51 PM 38.8775 -112.9478 206° Southwest 229 264 28,000  Level Salt Lake Center
Sun 12:58:52 PM 38.8200 -112.9833 206° Southwest 230 265 28,000  Level Salt Lake Center
Sun 12:59:54 PM 38.7617 -113.0194 206° Southwest 232 267 28,000  Level Salt Lake Center
Sun 01:00:55 PM 38.7044 -113.0575 207° Southwest 232 267 28,000  Level Salt Lake Center
Sun 01:01:57 PM 38.6456 -113.0922 205° Southwest 233 268 28,000  Level Salt Lake Center
Sun 01:02:58 PM 38.5778 -113.1361 207° Southwest 229 264 28,000  Level Salt Lake Center
Sun 01:04:00 PM 38.5206 -113.1717 206° Southwest 230 265 28,000  Level Salt Lake Center
Sun 01:05:02 PM 38.4622 -113.2083 206° Southwest 232 267 28,000  Level Salt Lake Center
Sun 01:06:03 PM 38.4042 -113.2442 206° Southwest 233 268 28,000  Level Salt Lake Center
Sun 01:07:05 PM 38.3475 -113.2819 208° Southwest 231 266 28,000  Level Salt Lake Center
Sun 01:08:06 PM 38.2892 -113.3153 204° Southwest 231 266 28,000  Level Salt Lake Center
Sun 01:09:08 PM 38.2317 -113.3508 206° Southwest 231 266 28,000  Level Salt Lake Center
Sun 01:10:10 PM 38.1633 -113.3908 205° Southwest 228 262 28,000  Level Salt Lake Center
Sun 01:11:11 PM 38.1064 -113.4242 205° Southwest 226 260 28,000  Level Salt Lake Center
Sun 01:12:13 PM 38.0503 -113.4589 206° Southwest 225 259 28,000  Level Salt Lake Center
Sun 01:13:15 PM 37.9947 -113.4947 207° Southwest 225 259 28,000  Level Salt Lake Center
Sun 01:14:16 PM 37.9392 -113.5306 207° Southwest 225 259 28,000  Level Salt Lake Center
Sun 01:15:18 PM 37.8822 -113.5647 205° Southwest 226 260 28,000  Level Salt Lake Center
Sun 01:16:20 PM 37.8256 -113.5983 205° Southwest 226 260 28,000  Level Salt Lake Center
Sun 01:17:21 PM 37.7589 -113.6394 206° Southwest 224 258 28,000  Level Salt Lake Center
Sun 01:18:23 PM 37.7033 -113.6733 206° Southwest 222 255 28,000  Level Salt Lake Center
Sun 01:19:25 PM 37.6481 -113.7075 206° Southwest 222 255 28,000  Level Salt Lake Center
Sun 01:20:26 PM 37.5928 -113.7411 206° Southwest 221 254 28,000  Level Salt Lake Center
Sun 01:21:28 PM 37.5369 -113.7747 206° Southwest 222 255 28,000  Level Salt Lake Center
Sun 01:22:30 PM 37.4814 -113.8083 206° Southwest 222 255 28,000  Level Salt Lake Center
Sun 01:23:32 PM 37.4144 -113.8483 205° Southwest 222 255 28,000  Level Salt Lake Center
Sun 01:24:33 PM 37.3586 -113.8817 205° Southwest 222 255 28,000  Level Salt Lake Center
Sun 01:25:35 PM 37.3031 -113.9147 205° Southwest 222 255 28,000  Level Salt Lake Center
Sun 01:26:37 PM 37.2483 -113.9492 207° Southwest 221 254 28,000  Level Salt Lake Center
Sun 01:27:38 PM 37.1928 -113.9819 205° Southwest 221 254 28,000  Level Salt Lake Center
Sun 01:28:40 PM 37.1378 -114.0156 206° Southwest 221 254 28,000  Level Salt Lake Center
Sun 01:29:42 PM 37.0808 -114.0475 204° Southwest 223 257 28,000  Level Salt Lake Center
Sun 01:30:44 PM 37.0158 -114.0872 206° Southwest 219 252 28,000  Level Salt Lake Center
Sun 01:31:46 PM 36.9603 -114.1206 206° Southwest 219 252 28,000  Level Salt Lake Center
Sun 01:32:47 PM 36.9042 -114.1531 205° Southwest 221 254 28,000  Level Salt Lake Center
Sun 01:34:15 PM 36.8242 -114.1967 204° Southwest 220 253 28,000  Level Los Angeles Center
Sun 01:35:17 PM 36.7689 -114.2294 205° Southwest 219 252 28,000  Level Los Angeles Center
Sun 01:36:19 PM 36.7142 -114.2617 205° Southwest 218 251 28,000  Level Los Angeles Center
Sun 01:37:33 PM 36.6483 -114.2997 205° Southwest 217 250 28,000  Level Los Angeles Center
Sun 01:38:36 PM 36.5828 -114.3386 205° Southwest 217 250 28,000  Level Los Angeles Center
Sun 01:39:38 PM 36.5281 -114.3700 205° Southwest 216 249 28,000  Level Los Angeles Center
Sun 01:40:52 PM 36.4739 -114.4025 206° Southwest 216 249 28,000  Level Los Angeles Center
Sun 01:41:54 PM 36.4106 -114.4411 206° Southwest 213 245 28,000  Level Los Angeles Center
Sun 01:42:57 PM 36.3561 -114.4725 205° Southwest 214 246 28,000  Level Los Angeles Center
Sun 01:43:59 PM 36.2919 -114.5097 205° Southwest 212 244 28,000  Level Los Angeles Center
Sun 01:45:01 PM 36.2383 -114.5403 205° Southwest 212 244 28,000  Level Los Angeles Center
Sun 01:46:03 PM 36.1844 -114.5725 206° Southwest 213 245 28,000  Level Los Angeles Center
Sun 01:47:05 PM 36.1294 -114.6042 205° Southwest 215 247 28,000  Level Los Angeles Center
Sun 01:48:07 PM 36.0756 -114.6364 206° Southwest 215 247 28,000  Level Los Angeles Center
Sun 01:49:09 PM 36.0214 -114.6664 204° Southwest 213 245 28,000  Level Los Angeles Center
Sun 01:50:11 PM 35.9669 -114.6986 206° Southwest 214 246 28,000  Level Los Angeles Center
Sun 01:51:13 PM 35.9017 -114.7364 205° Southwest 215 247 28,000  Level Los Angeles Center
Sun 01:52:15 PM 35.8481 -114.7678 205° Southwest 213 245 28,000  Level Los Angeles Center
Sun 01:53:17 PM 35.7950 -114.7986 205° Southwest 212 244 28,000  Level Los Angeles Center
Sun 01:54:20 PM 35.7408 -114.8300 205° Southwest 214 246 28,000  Level Los Angeles Center
Sun 01:55:22 PM 35.6881 -114.8597 205° Southwest 209 241 28,000  Level Los Angeles Center
Sun 01:56:24 PM 35.6350 -114.8900 205° Southwest 210 242 28,000  Level Los Angeles Center
Sun 01:57:26 PM 35.5722 -114.9256 205° Southwest 207 238 28,000  Level Los Angeles Center
Sun 01:58:28 PM 35.5192 -114.9561 205° Southwest 210 242 28,000  Level Los Angeles Center
Sun 01:59:29 PM 35.4756 -114.9800 204° Southwest 212 244 28,000  Level Los Angeles Center
Sun 02:00:32 PM 35.4128 -115.0153 205° Southwest 209 241 28,000 -192 Level Los Angeles Center
Sun 02:01:34 PM 35.3600 -115.0475 206° Southwest 209 241 27,600 -435 Descending Los Angeles Center
Sun 02:02:36 PM 35.3031 -115.0783 204° Southwest 219 252 27,100 -532 Descending Los Angeles Center
Sun 02:03:38 PM 35.2339 -115.1178 205° Southwest 226 260 26,500 -528 Descending Los Angeles Center
Sun 02:04:41 PM 35.1756 -115.1519 206° Southwest 231 266 26,000 -480 Descending Los Angeles Center
Sun 02:05:43 PM 35.1167 -115.1842 204° Southwest 231 266 25,500 -484 Descending Los Angeles Center
Sun 02:06:45 PM 35.0553 -115.2100 199° South 233 268 25,000 -484 Descending Los Angeles Center
Sun 02:07:47 PM 34.9869 -115.2406 200° South 236 272 24,500 -484 Descending Los Angeles Center
Sun 02:08:49 PM 34.9269 -115.2664 199° South 232 267 24,000 -242 Descending Los Angeles Center
Sun 02:09:51 PM 34.8744 -115.2869 198° South 225 259 24,000 -242 Level Los Angeles Center
Sun 02:10:53 PM 34.8039 -115.3189 200° South 225 259 23,500 -484 Descending Los Angeles Center
Sun 02:11:55 PM 34.7453 -115.3461 201° Southwest 225 259 23,000 -484 Descending Los Angeles Center
Sun 02:12:57 PM 34.6869 -115.3686 198° South 221 254 22,500 -484 Descending Los Angeles Center
Sun 02:13:59 PM 34.6300 -115.3953 201° Southwest 220 253 22,000 -480 Descending Los Angeles Center
Sun 02:15:02 PM 34.5722 -115.4183 198° South 218 251 21,500 -480 Descending Los Angeles Center
Sun 02:16:04 PM 34.5150 -115.4439 200° South 218 251 21,000 -532 Descending Los Angeles Center
Sun 02:17:06 PM 34.4444 -115.4744 200° South 222 255 20,400 -532 Descending Los Angeles Center
Sun 02:18:08 PM 34.3894 -115.5003 201° Southwest 223 257 19,900 -484 Descending Los Angeles Center
Sun 02:19:10 PM 34.3356 -115.5233 199° South 218 251 19,400 -532 Descending Los Angeles Center
Sun 02:20:12 PM 34.2839 -115.5769 221° Southwest 208 239 18,800 -532 Descending Los Angeles Center
Sun 02:21:14 PM 34.2400 -115.6225 221° Southwest 206 237 18,300 -823 Descending Los Angeles Center
Sun 02:22:16 PM 34.1975 -115.6694 222° Southwest 208 239 17,100 -1,258 Descending Los Angeles Center
Sun 02:23:18 PM 34.1567 -115.7172 224° Southwest 206 237 15,700 -1,210 Descending Los Angeles Center
Sun 02:24:20 PM 34.1156 -115.7664 225° Southwest 207 238 14,600 -1,056 Descending Los Angeles Center
Sun 02:25:23 PM 34.0561 -115.8142 214° Southwest 212 244 13,500 -768 Descending Los Angeles Center
Sun 02:26:25 PM 34.0072 -115.8453 208° Southwest 207 238 13,000 -581 Descending Los Angeles Center
Sun 02:27:27 PM 33.9467 -115.8328 170° South 212 244 12,300 -629 Descending Los Angeles Center
Sun 02:28:29 PM 33.8908 -115.8247 173° South 209 241 11,700 -774 Descending Los Angeles Center
Sun 02:29:31 PM 33.8558 -115.8597 220° Southwest 214 246 10,700 -1,210 Descending Los Angeles Center
Sun 02:30:33 PM 33.8392 -115.9239 253° West 210 242 9,200 -1,500 Descending Los Angeles Center
Sun 02:31:35 PM 33.8214 -116.0000 254° West 203 234 7,600 -1,065 Descending Los Angeles Center
Sun 02:32:37 PM 33.8058 -116.0597 253° West 197 227 7,000 -339 Descending Los Angeles Center
Sun 02:33:39 PM 33.7922 -116.1094 252° West 192 221 6,900 -97 Descending Los Angeles Center

Login

Don't have an account? Register now (free) for customized features, flight alerts, and more!